Time;durP1;ratioP1;P1;durP2;ratioP2;P2;SDS_P1;SDS_P2;PMS_P1;PMS_P2;Temp;Humidity;BMP_temperature;BMP_pressure;BME280_temperature;BME280_humidity;BME280_pressure;Samples;Min_cycle;Max_cycle;Signal;HPM_P1;HPM_P2
2023/06/15 00:04:00;;;;;;;8.83;4.63;;;;;;;17.45;74.72;100724.09;8307253;28;20045;-64
2023/06/15 00:08:01;;;;;;;4.32;3.90;;;;;;;17.51;74.71;100728.81;8307109;28;20333;-59
2023/06/15 00:12:01;;;;;;;4.35;3.90;;;;;;;16.68;78.89;100740.41;8305895;28;20559;-59
2023/06/15 00:16:01;;;;;;;7.35;4.57;;;;;;;16.24;81.73;100741.78;8304600;28;20046;-59
2023/06/15 00:20:04;;;;;;;6.80;4.20;;;;;;;16.40;80.82;100739.91;8307017;28;20049;-59
2023/06/15 00:24:05;;;;;;;6.57;4.40;;;;;;;16.80;79.20;100736.28;8303403;28;20050;-59
2023/06/15 00:28:05;;;;;;;4.68;3.47;;;;;;;16.91;77.14;100738.63;8303052;28;20556;-59
2023/06/15 00:32:06;;;;;;;5.93;4.65;;;;;;;16.51;79.83;100733.28;8305476;28;20037;-59
2023/06/15 00:36:10;;;;;;;6.15;4.40;;;;;;;16.69;78.14;100740.25;8303872;28;20041;-59
2023/06/15 00:40:11;;;;;;;8.23;4.65;;;;;;;16.64;78.47;100745.38;8306010;28;20045;-59
2023/06/15 00:44:12;;;;;;;7.00;4.82;;;;;;;16.56;79.94;100747.25;8302436;28;20492;-59
2023/06/15 00:48:13;;;;;;;6.45;5.15;;;;;;;16.70;78.80;100747.41;8305382;28;20438;-59
2023/06/15 00:52:16;;;;;;;6.00;4.78;;;;;;;16.87;76.82;100745.47;8302816;28;20048;-59
2023/06/15 00:56:18;;;;;;;8.57;4.65;;;;;;;16.49;79.05;100752.56;8300386;28;20044;-60
2023/06/15 01:00:19;;;;;;;5.50;4.53;;;;;;;16.24;81.22;100752.72;8303310;28;20038;-59
2023/06/15 01:04:24;;;;;;;4.85;4.00;;;;;;;15.98;82.31;100754.75;8305590;28;20094;-59
2023/06/15 01:08:26;;;;;;;6.40;5.43;;;;;;;15.80;83.23;100754.91;8305617;28;20044;-58
2023/06/15 01:12:28;;;;;;;7.28;4.65;;;;;;;16.20;80.23;100759.53;8300338;28;20048;-59
2023/06/15 01:16:40;;;;;;;6.70;5.20;;;;;;;16.14;80.93;100752.03;8303534;28;20040;-59
2023/06/15 01:20:42;;;;;;;6.38;4.32;;;;;;;15.97;81.70;100755.75;8305009;28;20049;-59
2023/06/15 01:24:57;;;;;;;7.45;5.00;;;;;;;15.67;81.97;100755.41;8298591;28;20096;-59
2023/06/15 01:28:59;;;;;;;5.55;4.63;;;;;;;15.78;82.60;100756.94;8301657;28;20065;-59
2023/06/15 01:33:02;;;;;;;5.47;4.78;;;;;;;15.61;83.75;100756.06;8304730;28;20044;-59
2023/06/15 01:37:04;;;;;;;6.97;5.28;;;;;;;15.47;84.01;100750.41;8303776;28;20058;-59
2023/06/15 01:41:07;;;;;;;12.52;4.93;;;;;;;15.79;82.73;100757.81;8303643;28;20171;-58
2023/06/15 01:45:09;;;;;;;6.30;4.43;;;;;;;15.96;80.23;100754.06;8301037;28;20101;-59
2023/06/15 01:49:09;;;;;;;7.35;5.10;;;;;;;15.92;81.18;100748.09;8304129;28;20069;-59
2023/06/15 01:53:10;;;;;;;5.88;5.13;;;;;;;15.81;81.44;100756.63;8296681;28;20046;-58
2023/06/15 01:57:11;;;;;;;7.10;4.90;;;;;;;15.87;82.59;100755.94;8303002;28;20041;-58
2023/06/15 02:01:11;;;;;;;5.68;4.22;;;;;;;15.93;81.01;100755.28;8302720;28;20038;-58
2023/06/15 02:05:15;;;;;;;7.65;4.85;;;;;;;15.76;82.14;100760.88;8307016;28;20036;-64
2023/06/15 02:09:15;;;;;;;5.97;4.70;;;;;;;15.51;82.93;100759.94;8306554;28;20048;-58
2023/06/15 02:13:17;;;;;;;6.57;5.32;;;;;;;15.28;84.18;100759.69;8305749;28;20149;-58
2023/06/15 02:17:17;;;;;;;5.55;4.88;;;;;;;15.06;85.45;100776.59;8303885;28;20514;-59
2023/06/15 02:21:18;;;;;;;6.28;5.43;;;;;;;14.87;86.48;100774.13;8301106;28;20092;-60
2023/06/15 02:25:19;;;;;;;6.07;5.35;;;;;;;15.11;86.09;100774.25;8303600;28;20049;-59
2023/06/15 02:29:20;;;;;;;10.23;5.55;;;;;;;15.04;86.89;100766.91;8300723;28;20049;-59
2023/06/15 02:33:20;;;;;;;6.18;5.18;;;;;;;15.15;85.73;100778.34;8300261;28;20064;-59
2023/06/15 02:37:21;;;;;;;5.63;4.90;;;;;;;15.33;85.06;100779.13;8300884;28;20045;-59
2023/06/15 02:41:22;;;;;;;6.05;5.45;;;;;;;14.99;86.92;100771.97;8300981;28;20347;-59
2023/06/15 02:45:22;;;;;;;10.05;5.50;;;;;;;15.00;87.63;100774.53;8301073;28;20108;-58
2023/06/15 02:49:23;;;;;;;7.28;6.18;;;;;;;15.13;86.26;100777.66;8303627;28;20107;-59
2023/06/15 02:53:23;;;;;;;7.03;6.15;;;;;;;15.40;84.64;100780.19;8300062;28;20041;-59
2023/06/15 02:57:30;;;;;;;6.43;5.82;;;;;;;14.70;87.80;100780.47;8302507;28;20405;-64
2023/06/15 03:01:49;;;;;;;6.68;5.80;;;;;;;14.56;89.11;100782.94;8304145;28;20412;-59
2023/06/15 03:05:51;;;;;;;9.57;5.70;;;;;;;14.64;88.67;100783.84;8302850;28;20037;-58
2023/06/15 03:09:53;;;;;;;6.95;5.85;;;;;;;14.50;89.83;100781.72;8299685;28;20079;-59
2023/06/15 03:13:53;;;;;;;8.05;6.07;;;;;;;14.28;90.54;100787.69;8301660;28;20041;-58
2023/06/15 03:17:55;;;;;;;6.65;6.00;;;;;;;14.38;90.60;100785.72;8307688;28;20133;-58
2023/06/15 03:21:58;;;;;;;6.30;5.70;;;;;;;14.21;90.87;100794.69;8305601;28;20069;-60
2023/06/15 03:25:59;;;;;;;8.48;6.10;;;;;;;14.56;90.20;100789.25;8303475;28;20042;-58
2023/06/15 03:30:01;;;;;;;7.15;5.55;;;;;;;14.72;88.19;100794.78;8308815;28;20037;-58
2023/06/15 03:34:03;;;;;;;6.57;5.90;;;;;;;14.85;87.42;100800.66;8306001;28;20346;-58
2023/06/15 03:38:04;;;;;;;7.57;5.55;;;;;;;14.59;88.85;100802.53;8307277;28;20044;-59
2023/06/15 03:42:05;;;;;;;6.43;5.82;;;;;;;14.40;89.95;100810.03;8307254;28;20041;-59
2023/06/15 03:46:06;;;;;;;6.63;5.40;;;;;;;14.24;90.92;100799.88;8305465;28;20045;-58
2023/06/15 03:50:07;;;;;;;9.38;6.35;;;;;;;14.27;90.74;100805.00;8308650;28;20107;-58
2023/06/15 03:54:08;;;;;;;6.80;6.13;;;;;;;14.44;90.59;100801.41;8303504;28;20057;-58
2023/06/15 03:58:09;;;;;;;6.63;5.70;;;;;;;14.74;88.80;100817.28;8304897;28;20518;-59
2023/06/15 04:02:10;;;;;;;6.68;5.72;;;;;;;14.87;88.64;100814.97;8302888;28;20100;-58
2023/06/15 04:06:11;;;;;;;7.25;6.20;;;;;;;15.05;88.05;100814.91;8300539;28;20038;-58
2023/06/15 04:10:13;;;;;;;7.78;6.25;;;;;;;15.21;87.42;100821.28;8301196;28;20422;-59
2023/06/15 04:14:14;;;;;;;6.47;5.60;;;;;;;15.24;87.09;100822.81;8307555;28;20072;-59
2023/06/15 04:18:16;;;;;;;6.90;6.20;;;;;;;15.38;85.20;100820.38;8304855;28;20133;-58
2023/06/15 04:22:16;;;;;;;10.93;6.50;;;;;;;15.54;85.13;100825.91;8313201;28;20149;-58
2023/06/15 04:26:17;;;;;;;14.48;7.28;;;;;;;15.73;85.20;100824.75;8299625;28;20052;-60
2023/06/15 04:30:24;;;;;;;8.52;6.88;;;;;;;15.80;84.62;100825.81;8294407;28;20128;-59
2023/06/15 04:34:26;;;;;;;10.32;6.13;;;;;;;15.88;84.19;100833.13;8298229;28;20085;-58
2023/06/15 04:38:28;;;;;;;13.80;7.38;;;;;;;16.20;83.26;100833.19;8279319;28;20041;-57
2023/06/15 04:42:33;;;;;;;13.55;7.03;;;;;;;16.60;80.22;100834.09;8269737;28;20528;-58
2023/06/15 04:46:38;;;;;;;11.93;5.47;;;;;;;16.52;80.28;100838.69;8269653;28;20442;-59
2023/06/15 04:50:39;;;;;;;7.40;5.90;;;;;;;16.52;80.93;100850.47;8269470;28;20042;-64
2023/06/15 04:54:40;;;;;;;18.30;6.80;;;;;;;16.68;81.53;100850.47;8285963;28;20738;-64
2023/06/15 04:58:41;;;;;;;9.48;6.03;;;;;;;16.90;79.25;100859.84;8300983;28;20400;-64
2023/06/15 05:02:42;;;;;;;10.02;6.10;;;;;;;16.98;77.70;100857.94;8304383;28;20041;-65
2023/06/15 05:06:42;;;;;;;7.43;5.95;;;;;;;17.28;80.22;100853.59;8301443;28;20037;-64
2023/06/15 05:10:43;;;;;;;8.98;6.05;;;;;;;17.51;79.99;100854.59;8297942;28;20088;-65
2023/06/15 05:14:43;;;;;;;8.93;5.65;;;;;;;17.80;76.75;100863.00;8297653;28;20052;-64
2023/06/15 05:18:46;;;;;;;6.20;5.57;;;;;;;18.15;78.08;100859.72;8297625;28;20046;-64
2023/06/15 05:22:47;;;;;;;7.90;5.25;;;;;;;18.66;74.56;100875.44;8294453;28;20124;-58
2023/06/15 05:26:47;;;;;;;7.28;5.38;;;;;;;18.59;75.30;100863.53;8292800;28;20042;-60
2023/06/15 05:30:49;;;;;;;7.97;5.97;;;;;;;18.59;79.55;100863.53;8298926;28;20049;-59
2023/06/15 05:34:50;;;;;;;8.48;5.35;;;;;;;19.16;74.70;100861.94;8299707;28;20050;-59
2023/06/15 05:38:50;;;;;;;6.45;5.20;;;;;;;19.54;73.86;100859.19;8302418;28;20118;-59
2023/06/15 05:42:51;;;;;;;10.45;5.95;;;;;;;19.54;75.53;100864.66;8298463;28;20042;-59
2023/06/15 05:46:52;;;;;;;5.35;4.85;;;;;;;19.64;75.31;100865.22;8300432;28;20489;-60
2023/06/15 05:50:53;;;;;;;7.85;5.05;;;;;;;19.89;70.81;100870.19;8298637;28;20076;-59
2023/06/15 05:54:54;;;;;;;7.78;4.80;;;;;;;20.26;70.67;100867.28;8294350;28;20089;-59
2023/06/15 05:58:56;;;;;;;6.28;5.28;;;;;;;20.55;70.84;100869.06;8302145;28;20049;-59
2023/06/15 06:02:57;;;;;;;8.88;5.10;;;;;;;20.85;69.96;100874.22;8319799;28;20129;-59
2023/06/15 06:07:07;;;;;;;8.30;5.47;;;;;;;21.12;66.93;100875.31;8302250;28;20042;-59
2023/06/15 06:11:09;;;;;;;6.35;4.30;;;;;;;21.15;64.18;100875.78;8301276;28;20040;-59
2023/06/15 06:15:14;;;;;;;7.78;4.60;;;;;;;21.21;65.06;100879.63;8303831;28;20038;-59
2023/06/15 06:19:15;;;;;;;5.65;4.80;;;;;;;21.49;65.55;100882.31;8308615;28;20048;-59
2023/06/15 06:23:17;;;;;;;8.57;4.55;;;;;;;21.46;64.29;100871.75;8299823;28;20038;-59
2023/06/15 06:27:18;;;;;;;5.47;4.97;;;;;;;21.81;63.11;100878.97;8304422;28;20040;-60
2023/06/15 06:31:18;;;;;;;11.35;5.43;;;;;;;22.10;63.39;100874.00;8303513;28;20042;-60
2023/06/15 06:35:19;;;;;;;6.90;6.05;;;;;;;22.15;63.21;100876.13;8304423;28;20045;-59
2023/06/15 06:39:19;;;;;;;7.43;5.72;;;;;;;22.32;63.79;100872.78;8304601;28;20076;-59
2023/06/15 06:43:20;;;;;;;11.50;6.83;;;;;;;22.36;63.02;100879.59;8302459;28;20104;-59
2023/06/15 06:47:20;;;;;;;12.43;6.82;;;;;;;22.66;61.99;100883.69;8304930;28;20284;-59
2023/06/15 06:51:20;;;;;;;11.95;6.93;;;;;;;22.89;61.93;100880.56;8306261;28;20458;-59
2023/06/15 06:55:21;;;;;;;13.77;6.82;;;;;;;22.80;62.42;100871.66;8308506;28;20033;-59
2023/06/15 06:59:22;;;;;;;12.60;7.43;;;;;;;22.53;62.55;100872.66;8308264;28;20685;-59
2023/06/15 07:03:22;;;;;;;14.63;6.60;;;;;;;22.69;62.37;100888.81;8311058;28;20042;-59
2023/06/15 07:07:22;;;;;;;17.17;7.28;;;;;;;22.72;62.47;100888.38;8308576;28;20294;-59
2023/06/15 07:11:23;;;;;;;14.20;7.35;;;;;;;22.77;63.28;100885.84;8310262;28;20049;-59
2023/06/15 07:15:23;;;;;;;10.95;7.40;;;;;;;22.72;62.72;100882.88;8307852;28;20045;-59
2023/06/15 07:19:24;;;;;;;13.73;7.85;;;;;;;23.07;65.69;100887.16;8310732;28;20095;-61
2023/06/15 07:23:25;;;;;;;11.00;5.65;;;;;;;23.53;62.11;100889.88;8306736;28;20038;-59
2023/06/15 07:27:25;;;;;;;12.15;6.88;;;;;;;23.37;61.66;100893.09;8307482;28;20064;-59
2023/06/15 07:31:26;;;;;;;13.18;7.00;;;;;;;23.68;60.52;100895.16;8308431;28;20057;-59
2023/06/15 07:35:26;;;;;;;11.10;6.70;;;;;;;24.00;60.73;100888.72;8309262;28;20119;-59
2023/06/15 07:39:27;;;;;;;12.00;6.50;;;;;;;24.68;60.39;100887.94;8306832;28;20049;-59
2023/06/15 07:43:27;;;;;;;13.73;6.85;;;;;;;24.34;59.15;100885.56;8309385;28;20092;-59
2023/06/15 07:47:27;;;;;;;14.18;8.50;;;;;;;24.26;58.64;100894.09;8306824;28;20037;-59
2023/06/15 07:51:28;;;;;;;11.82;6.95;;;;;;;24.73;58.93;100897.25;8304611;28;20120;-64
2023/06/15 07:55:28;;;;;;;14.15;6.88;;;;;;;25.10;59.59;100886.34;8308258;28;20500;-64
2023/06/15 07:59:29;;;;;;;13.93;7.60;;;;;;;25.09;57.45;100888.25;8306956;28;20488;-64
2023/06/15 08:03:29;;;;;;;10.77;6.07;;;;;;;25.48;57.08;100896.25;8306545;28;20053;-65
2023/06/15 08:07:31;;;;;;;11.15;6.55;;;;;;;25.64;55.80;100890.09;8308240;28;20036;-64
2023/06/15 08:11:31;;;;;;;9.50;5.68;;;;;;;25.56;55.00;100893.19;8306311;28;20448;-65
2023/06/15 08:15:32;;;;;;;6.22;5.07;;;;;;;25.72;54.36;100886.19;8308716;28;20107;-64
2023/06/15 08:19:32;;;;;;;9.93;5.00;;;;;;;25.50;55.35;100883.03;8306464;28;20174;-64
2023/06/15 08:23:33;;;;;;;15.50;4.80;;;;;;;25.87;53.09;100873.66;8305293;28;20531;-64
2023/06/15 08:27:33;;;;;;;5.95;4.63;;;;;;;25.51;54.15;100883.84;8304620;28;20069;-64
2023/06/15 08:31:35;;;;;;;5.28;3.75;;;;;;;25.96;52.62;100871.41;8308513;28;20045;-64
2023/06/15 08:35:35;;;;;;;5.97;3.38;;;;;;;26.26;52.05;100870.38;8305044;28;20057;-64
2023/06/15 08:39:36;;;;;;;9.30;3.38;;;;;;;26.25;51.32;100879.78;8307200;28;20037;-65
2023/06/15 08:43:40;;;;;;;9.20;3.47;;;;;;;26.48;50.25;100871.59;8306447;28;20036;-64
2023/06/15 08:47:42;;;;;;;6.95;3.75;;;;;;;25.81;50.70;100871.81;8305941;28;20810;-65
2023/06/15 08:51:44;;;;;;;5.10;2.95;;;;;;;25.88;50.12;100869.78;8303862;28;20042;-65
2023/06/15 08:55:46;;;;;;;5.97;3.28;;;;;;;26.35;50.15;100866.19;8303396;28;20257;-64
2023/06/15 08:59:46;;;;;;;6.35;3.05;;;;;;;26.36;50.99;100861.50;8307295;28;20343;-64
2023/06/15 09:03:51;;;;;;;6.35;3.47;;;;;;;26.21;50.71;100870.25;8305094;28;20037;-65
2023/06/15 09:07:52;;;;;;;10.82;3.53;;;;;;;26.54;51.75;100862.31;8305821;28;20567;-64
2023/06/15 09:11:53;;;;;;;6.78;3.03;;;;;;;27.09;47.85;100867.66;8306027;28;20499;-64
2023/06/15 09:16:01;;;;;;;5.60;3.10;;;;;;;27.23;49.41;100860.78;8303747;28;20535;-59
2023/06/15 09:20:02;;;;;;;4.97;3.40;;;;;;;27.47;48.87;100852.25;8304175;28;20284;-59
2023/06/15 09:24:04;;;;;;;6.80;3.10;;;;;;;27.11;48.26;100854.38;8305307;28;20038;-59
2023/06/15 09:28:06;;;;;;;5.90;2.75;;;;;;;27.37;47.71;100856.72;8302483;28;20064;-58
2023/06/15 09:32:06;;;;;;;7.45;2.97;;;;;;;27.67;47.99;100854.63;8304272;28;20431;-58
2023/06/15 09:36:07;;;;;;;7.72;3.55;;;;;;;27.67;46.54;100849.94;8303901;28;20042;-59
2023/06/15 09:40:10;;;;;;;6.05;3.00;;;;;;;27.61;48.15;100845.34;8304827;28;20045;-63
2023/06/15 09:44:13;;;;;;;6.32;3.00;;;;;;;28.00;44.59;100846.50;8302914;28;20033;-59
2023/06/15 09:48:13;;;;;;;8.85;3.20;;;;;;;27.49;44.65;100850.06;8305794;28;20496;-59
2023/06/15 09:52:13;;;;;;;9.27;3.57;;;;;;;27.59;44.52;100835.56;8302086;28;20808;-59
2023/06/15 09:56:15;;;;;;;7.93;2.90;;;;;;;27.96;44.94;100843.38;8302779;28;20814;-58
2023/06/15 10:00:15;;;;;;;6.22;2.97;;;;;;;28.86;42.92;100837.88;8302562;28;20456;-59
2023/06/15 10:04:19;;;;;;;5.13;2.80;;;;;;;29.39;41.16;100841.88;8301627;28;20061;-59
2023/06/15 10:08:24;;;;;;;5.97;2.50;;;;;;;30.25;39.15;100841.97;8303125;28;20411;-63
2023/06/15 10:12:27;;;;;;;4.93;2.53;;;;;;;29.79;40.12;100845.25;8300629;28;20045;-63
2023/06/15 10:16:28;;;;;;;;;;;;;;;31.60;39.16;100841.56;8305351;28;20100;-63
2023/06/15 10:20:30;;;;;;;5.38;2.83;;;;;;;32.32;37.90;100839.66;8305119;28;19917;-64
2023/06/15 10:24:30;;;;;;;4.45;2.53;;;;;;;33.27;35.23;100836.19;8302397;28;20042;-63
2023/06/15 10:28:36;;;;;;;5.88;2.80;;;;;;;34.17;36.49;100829.53;8308144;28;20133;-64
2023/06/15 10:32:46;;;;;;;5.30;2.53;;;;;;;33.90;36.47;100839.19;8308850;28;20107;-64
2023/06/15 10:36:56;;;;;;;5.53;2.58;;;;;;;31.26;36.93;100842.97;8306173;28;20396;-63
2023/06/15 10:40:58;;;;;;;6.10;3.15;;;;;;;31.02;38.36;100838.88;8322919;28;20501;-64
2023/06/15 10:44:58;;;;;;;6.82;2.53;;;;;;;32.72;36.58;100833.38;8324575;28;20033;-64
2023/06/15 10:49:04;;;;;;;7.18;2.72;;;;;;;33.17;35.73;100839.84;8315470;28;20140;-64
2023/06/15 10:53:05;;;;;;;5.15;2.95;;;;;;;30.65;38.00;100827.63;8304536;28;20571;-64
2023/06/15 10:57:06;;;;;;;4.75;3.13;;;;;;;28.95;40.17;100831.66;8308156;28;20045;-64
2023/06/15 11:01:13;;;;;;;26.15;21.60;;;;;;;28.35;41.12;100828.59;8309919;28;20566;-64
2023/06/15 11:05:17;;;;;;;4.13;2.92;;;;;;;27.93;42.16;100826.34;8309363;28;20121;-64
2023/06/15 11:09:20;;;;;;;6.35;3.80;;;;;;;27.83;43.09;100826.94;8316796;28;20511;-63
2023/06/15 11:13:24;;;;;;;7.18;3.25;;;;;;;27.94;42.12;100828.03;8307477;28;20034;-64
2023/06/15 11:17:27;;;;;;;5.85;2.72;;;;;;;30.95;38.86;100821.50;8309690;28;20045;-65
2023/06/15 11:21:28;;;;;;;5.85;3.30;;;;;;;32.60;37.86;100830.84;8304430;28;20447;-64
2023/06/15 11:25:29;;;;;;;3.42;2.80;;;;;;;31.29;37.94;100822.91;8305566;28;20025;-64
2023/06/15 11:29:33;;;;;;;7.25;3.42;;;;;;;32.43;36.58;100813.44;8307066;28;20042;-64
2023/06/15 11:33:39;;;;;;;4.32;3.47;;;;;;;34.21;35.42;100833.44;8307689;28;20491;-64
2023/06/15 11:37:40;;;;;;;8.32;2.85;;;;;;;33.82;34.77;100825.72;8306385;28;20045;-64
2023/06/15 11:41:46;;;;;;;73.80;40.17;;;;;;;35.20;34.33;100817.03;8307892;28;20041;-64
2023/06/15 11:45:47;;;;;;;7.60;2.97;;;;;;;35.15;34.83;100817.06;8305480;28;20514;-64
2023/06/15 11:49:47;;;;;;;8.27;2.92;;;;;;;36.18;33.82;100812.56;8306219;28;20415;-64
2023/06/15 11:53:47;;;;;;;5.97;2.67;;;;;;;36.87;32.30;100821.16;8291006;28;20038;-63
2023/06/15 11:57:48;;;;;;;6.50;2.78;;;;;;;36.47;32.34;100804.84;8303803;28;20479;-63
2023/06/15 12:01:49;;;;;;;3.80;3.08;;;;;;;36.36;32.30;100803.34;8305179;28;20117;-64
2023/06/15 12:05:58;;;;;;;5.13;2.88;;;;;;;34.94;32.94;100801.56;8304412;28;20033;-64
2023/06/15 12:10:00;;;;;;;6.55;3.22;;;;;;;33.57;34.72;100800.53;8304270;28;20129;-58
2023/06/15 12:14:05;;;;;;;6.40;3.20;;;;;;;31.00;36.22;100790.78;8303876;28;20578;-58
2023/06/15 12:18:08;;;;;;;8.20;3.28;;;;;;;30.31;37.93;100776.75;8303588;28;20034;-58
2023/06/15 12:22:08;;;;;;;6.90;2.80;;;;;;;29.22;38.74;100771.41;8301117;28;20037;-64
2023/06/15 12:26:09;;;;;;;5.10;3.30;;;;;;;28.84;38.89;100768.53;8302756;28;20058;-64
2023/06/15 12:30:12;;;;;;;6.45;2.83;;;;;;;29.27;39.81;100765.06;8303154;28;20093;-64
2023/06/15 12:34:13;;;;;;;8.73;3.47;;;;;;;28.84;40.34;100757.41;8303867;28;20034;-64
2023/06/15 12:38:13;;;;;;;9.30;3.10;;;;;;;28.65;41.44;100767.13;8306559;28;20041;-66
2023/06/15 12:42:20;;;;;;;5.68;2.60;;;;;;;28.86;40.25;100748.78;8301018;28;20272;-65
2023/06/15 12:46:20;;;;;;;3.72;3.00;;;;;;;28.88;39.20;100758.59;8304681;28;20119;-64
2023/06/15 12:50:21;;;;;;;5.27;3.10;;;;;;;28.72;39.01;100748.28;8303561;28;20038;-65
2023/06/15 12:54:22;;;;;;;3.78;2.80;;;;;;;28.59;38.66;100743.94;8300269;28;20273;-65
2023/06/15 12:58:22;;;;;;;5.78;3.17;;;;;;;28.80;38.64;100739.53;8303141;28;20125;-65
2023/06/15 13:02:22;;;;;;;5.07;3.03;;;;;;;28.54;38.76;100735.47;8300118;28;20042;-65
2023/06/15 13:06:23;;;;;;;7.17;3.50;;;;;;;28.93;38.37;100738.34;8318148;28;20265;-64
2023/06/15 13:10:23;;;;;;;5.13;3.30;;;;;;;28.80;38.99;100733.97;8303382;28;20303;-64
2023/06/15 13:14:24;;;;;;;7.05;3.15;;;;;;;28.67;39.17;100733.47;8302164;28;20034;-65
2023/06/15 13:18:25;;;;;;;4.65;3.33;;;;;;;28.48;40.10;100730.06;8305409;28;20048;-65
2023/06/15 13:22:25;;;;;;;6.40;3.10;;;;;;;28.19;41.53;100726.50;8301745;28;20431;-65
2023/06/15 13:26:27;;;;;;;5.13;3.27;;;;;;;28.07;40.82;100722.06;8298840;28;20060;-65
2023/06/15 13:30:27;;;;;;;6.20;3.35;;;;;;;28.10;39.38;100725.22;8300869;28;20285;-65
2023/06/15 13:34:27;;;;;;;6.53;3.50;;;;;;;28.09;39.54;100725.47;8301767;28;20044;-64
2023/06/15 13:38:28;;;;;;;6.50;3.33;;;;;;;28.02;40.13;100719.19;8300614;28;20061;-65
2023/06/15 13:42:28;;;;;;;11.03;3.47;;;;;;;28.19;41.08;100720.94;8302737;28;20049;-65
2023/06/15 13:46:30;;;;;;;6.50;3.10;;;;;;;28.59;42.24;100720.81;8302886;28;20310;-64
2023/06/15 13:50:30;;;;;;;7.13;3.33;;;;;;;28.38;40.60;100710.41;8301164;28;20133;-65
2023/06/15 13:54:31;;;;;;;8.03;3.60;;;;;;;28.32;41.25;100708.63;8299439;28;20041;-65
2023/06/15 13:58:31;;;;;;;8.50;3.70;;;;;;;28.08;41.60;100716.25;8300890;28;20493;-65
2023/06/15 14:02:31;;;;;;;7.72;3.08;;;;;;;27.75;41.68;100715.31;8302785;28;20050;-65
2023/06/15 14:06:32;;;;;;;8.73;3.85;;;;;;;27.80;42.69;100715.41;8302996;28;20037;-65
2023/06/15 14:10:33;;;;;;;5.43;3.17;;;;;;;27.82;42.45;100702.09;8300569;28;20038;-65
2023/06/15 14:14:34;;;;;;;8.38;3.25;;;;;;;27.86;41.20;100703.31;8302613;28;20428;-65
2023/06/15 14:18:35;;;;;;;7.25;3.20;;;;;;;28.05;41.99;100702.00;8301446;28;20037;-65
2023/06/15 14:22:35;;;;;;;6.22;3.42;;;;;;;27.93;39.55;100692.91;8299149;28;20496;-65
2023/06/15 14:26:36;;;;;;;6.32;3.33;;;;;;;28.08;39.77;100691.25;8299809;28;20355;-65
2023/06/15 14:30:36;;;;;;;10.57;3.00;;;;;;;28.30;38.72;100685.78;8300903;28;20045;-65
2023/06/15 14:34:36;;;;;;;6.25;4.20;;;;;;;28.41;39.71;100694.06;8299564;28;20287;-65
2023/06/15 14:38:37;;;;;;;5.27;3.10;;;;;;;28.43;39.15;100696.59;8278408;28;20072;-65
2023/06/15 14:42:46;;;;;;;7.65;3.38;;;;;;;28.20;39.63;100688.38;8267222;28;20281;-65
2023/06/15 14:46:47;;;;;;;10.00;3.80;;;;;;;28.61;43.10;100685.22;8290068;28;20046;-65
2023/06/15 14:50:47;;;;;;;5.03;3.40;;;;;;;28.61;40.10;100690.81;8280230;28;20080;-65
2023/06/15 14:54:48;;;;;;;7.13;3.43;;;;;;;28.77;40.14;100683.50;8310050;28;20077;-64
2023/06/15 14:58:49;;;;;;;6.20;3.30;;;;;;;28.65;39.16;100683.63;8300238;28;20285;-64
2023/06/15 15:02:51;;;;;;;8.85;3.78;;;;;;;28.54;39.55;100687.31;8299390;28;20295;-65
2023/06/15 15:06:52;;;;;;;5.07;3.22;;;;;;;28.28;40.27;100683.28;8296409;28;20037;-65
2023/06/15 15:10:52;;;;;;;10.57;3.90;;;;;;;28.44;39.20;100679.63;8300359;28;20050;-66
2023/06/15 15:14:53;;;;;;;5.55;3.25;;;;;;;28.37;38.55;100689.25;8306657;28;20044;-66
2023/06/15 15:18:53;;;;;;;3.70;3.10;;;;;;;28.19;38.07;100675.56;8304592;28;20045;-58
2023/06/15 15:22:54;;;;;;;9.73;2.97;;;;;;;28.36;37.72;100676.44;8299706;28;20080;-64
2023/06/15 15:26:54;;;;;;;4.50;2.93;;;;;;;28.40;39.22;100677.63;8299711;28;20576;-64
2023/06/15 15:30:55;;;;;;;5.47;3.10;;;;;;;28.61;38.89;100666.56;8308683;28;20362;-64
2023/06/15 15:34:56;;;;;;;5.60;3.03;;;;;;;28.43;38.34;100672.41;8304341;28;20073;-64
2023/06/15 15:38:56;;;;;;;8.15;3.30;;;;;;;28.43;39.54;100672.41;8307162;28;20049;-64
2023/06/15 15:42:56;;;;;;;7.60;3.30;;;;;;;28.23;40.38;100665.63;8304812;28;20064;-64
2023/06/15 15:46:57;;;;;;;5.95;3.55;;;;;;;28.18;41.35;100658.03;8306152;28;20048;-64
2023/06/15 15:50:57;;;;;;;7.93;3.80;;;;;;;28.23;40.75;100654.50;8303992;28;20077;-64
2023/06/15 15:54:58;;;;;;;10.63;3.50;;;;;;;28.14;40.60;100667.13;8301995;28;20501;-58
2023/06/15 15:58:58;;;;;;;6.93;3.70;;;;;;;28.06;40.76;100650.88;8304008;28;20042;-58
2023/06/15 16:02:59;;;;;;;7.43;3.60;;;;;;;27.88;41.55;100646.41;8299935;28;20284;-58
2023/06/15 16:06:59;;;;;;;6.72;3.75;;;;;;;27.82;42.76;100646.50;8303581;28;20281;-57
2023/06/15 16:10:59;;;;;;;7.67;3.63;;;;;;;27.88;45.13;100645.53;8304650;28;20471;-58
2023/06/15 16:15:01;;;;;;;5.75;3.65;;;;;;;27.88;42.76;100643.63;8305795;28;20284;-59
2023/06/15 16:19:01;;;;;;;5.88;3.60;;;;;;;27.94;41.55;100644.53;8304949;28;20515;-59
2023/06/15 16:23:02;;;;;;;6.63;3.10;;;;;;;27.99;42.37;100630.75;8300549;28;20393;-59
2023/06/15 16:27:02;;;;;;;4.18;3.63;;;;;;;27.90;42.42;100643.38;8306120;28;20086;-58
2023/06/15 16:31:03;;;;;;;7.38;3.10;;;;;;;28.00;42.88;100643.53;8304394;28;20058;-59
2023/06/15 16:35:04;;;;;;;6.15;4.05;;;;;;;28.20;41.80;100643.88;8302725;28;20044;-59
2023/06/15 16:39:05;;;;;;;5.30;3.50;;;;;;;28.37;42.66;100639.19;8301961;28;20052;-59
2023/06/15 16:43:08;;;;;;;7.82;3.05;;;;;;;28.23;40.19;100632.25;8303363;28;20478;-59
2023/06/15 16:47:09;;;;;;;4.57;3.40;;;;;;;28.21;41.53;100640.84;8300317;28;20122;-59
2023/06/15 16:51:10;;;;;;;8.77;4.05;;;;;;;28.12;43.70;100641.53;8300930;28;20045;-65
2023/06/15 16:55:10;;;;;;;10.38;3.88;;;;;;;27.93;43.84;100638.13;8300803;28;20757;-64
2023/06/15 16:59:11;;;;;;;6.45;3.70;;;;;;;27.80;44.31;100638.44;8302490;28;20049;-65
2023/06/15 17:03:11;;;;;;;5.15;3.33;;;;;;;27.76;43.46;100641.94;8299080;28;20493;-65
2023/06/15 17:07:12;;;;;;;5.80;2.95;;;;;;;27.92;43.34;100641.16;8305936;28;20352;-65
2023/06/15 17:11:12;;;;;;;3.42;2.33;;;;;;;27.88;40.19;100645.53;8301344;28;20569;-66
2023/06/15 17:15:13;;;;;;;3.50;2.72;;;;;;;27.79;40.97;100652.56;8303434;28;20041;-65
2023/06/15 17:19:14;;;;;;;6.32;2.97;;;;;;;27.92;41.19;100650.34;8301315;28;20034;-65
2023/06/15 17:23:14;;;;;;;8.65;3.28;;;;;;;27.77;41.71;100643.63;8297122;28;20068;-63
2023/06/15 17:27:15;;;;;;;4.70;2.80;;;;;;;27.71;40.53;100645.47;8299978;28;20415;-70
2023/06/15 17:31:15;;;;;;;3.60;2.60;;;;;;;27.50;42.12;100648.13;8296667;28;20061;-69
2023/06/15 17:35:16;;;;;;;4.80;2.97;;;;;;;27.42;41.27;100646.59;8302491;28;20580;-59
2023/06/15 17:39:17;;;;;;;4.28;3.15;;;;;;;27.44;42.12;100654.66;8300742;28;20280;-59
2023/06/15 17:43:17;;;;;;;9.63;3.55;;;;;;;27.32;41.40;100651.91;8302029;28;20034;-59
2023/06/15 17:47:18;;;;;;;6.15;3.33;;;;;;;27.04;43.03;100651.00;8299783;28;20041;-60
2023/06/15 17:51:18;;;;;;;5.50;3.17;;;;;;;26.86;42.83;100653.94;8299314;28;20497;-63
2023/06/15 17:55:19;;;;;;;7.75;3.40;;;;;;;26.81;43.74;100661.03;8300797;28;20408;-64
2023/06/15 17:59:19;;;;;;;4.68;3.03;;;;;;;26.68;44.58;100664.06;8299902;28;20388;-65
2023/06/15 18:03:19;;;;;;;4.60;2.90;;;;;;;26.61;44.90;100660.56;8300601;28;20045;-64
2023/06/15 18:07:20;;;;;;;9.07;3.10;;;;;;;26.64;44.83;100659.25;8299346;28;20277;-64
2023/06/15 18:11:20;;;;;;;3.33;2.70;;;;;;;26.63;43.90;100663.13;8303727;28;20052;-64
2023/06/15 18:15:21;;;;;;;5.43;2.70;;;;;;;26.73;43.76;100664.19;8299163;28;20285;-65
2023/06/15 18:19:21;;;;;;;7.15;2.60;;;;;;;26.68;43.82;100664.06;8301229;28;20057;-65
2023/06/15 18:23:22;;;;;;;7.45;2.90;;;;;;;26.70;44.32;100664.69;8297417;28;20037;-64
2023/06/15 18:27:23;;;;;;;5.32;2.80;;;;;;;26.66;44.60;100666.22;8302023;28;20381;-65
2023/06/15 18:31:23;;;;;;;5.47;2.92;;;;;;;26.63;44.22;100666.72;8298311;28;20467;-64
2023/06/15 18:35:24;;;;;;;4.90;2.92;;;;;;;26.64;45.16;100665.66;8298596;28;20038;-64
2023/06/15 18:39:24;;;;;;;5.05;3.28;;;;;;;26.61;45.48;100666.09;8300635;28;20046;-66
2023/06/15 18:43:25;;;;;;;4.88;3.20;;;;;;;26.59;46.49;100668.25;8299249;28;20041;-65